sensor_id;sensor_type;location;lat;lon;timestamp;P1;durP1;ratioP1;P2;durP2;ratioP2
23496;SDS011;11925;48.122;11.560;2022-11-30T00:01:25;25.33;;;14.93;;
23496;SDS011;11925;48.122;11.560;2022-11-30T00:03:53;28.08;;;15.23;;
23496;SDS011;11925;48.122;11.560;2022-11-30T00:06:22;28.92;;;15.40;;
23496;SDS011;11925;48.122;11.560;2022-11-30T00:08:51;23.70;;;15.07;;
23496;SDS011;11925;48.122;11.560;2022-11-30T00:11:20;25.25;;;15.93;;
23496;SDS011;11925;48.122;11.560;2022-11-30T00:13:50;26.42;;;15.15;;
23496;SDS011;11925;48.122;11.560;2022-11-30T00:16:20;26.73;;;15.15;;
23496;SDS011;11925;48.122;11.560;2022-11-30T00:18:49;25.48;;;14.73;;
23496;SDS011;11925;48.122;11.560;2022-11-30T00:21:18;24.85;;;14.68;;
23496;SDS011;11925;48.122;11.560;2022-11-30T00:23:47;26.55;;;15.15;;
23496;SDS011;11925;48.122;11.560;2022-11-30T00:26:16;24.00;;;15.07;;
23496;SDS011;11925;48.122;11.560;2022-11-30T00:28:47;26.48;;;14.50;;
23496;SDS011;11925;48.122;11.560;2022-11-30T00:31:17;25.75;;;14.43;;
23496;SDS011;11925;48.122;11.560;2022-11-30T00:33:47;26.55;;;14.38;;
23496;SDS011;11925;48.122;11.560;2022-11-30T00:36:17;26.00;;;15.02;;
23496;SDS011;11925;48.122;11.560;2022-11-30T00:38:46;25.85;;;16.27;;
23496;SDS011;11925;48.122;11.560;2022-11-30T00:41:15;24.67;;;14.88;;
23496;SDS011;11925;48.122;11.560;2022-11-30T00:43:44;24.35;;;14.40;;
23496;SDS011;11925;48.122;11.560;2022-11-30T00:46:13;27.45;;;16.20;;
23496;SDS011;11925;48.122;11.560;2022-11-30T00:48:41;26.60;;;14.95;;
23496;SDS011;11925;48.122;11.560;2022-11-30T00:51:11;25.50;;;15.20;;
23496;SDS011;11925;48.122;11.560;2022-11-30T00:53:40;26.45;;;15.93;;
23496;SDS011;11925;48.122;11.560;2022-11-30T00:56:09;25.95;;;15.32;;
23496;SDS011;11925;48.122;11.560;2022-11-30T00:58:38;25.38;;;14.68;;
23496;SDS011;11925;48.122;11.560;2022-11-30T01:01:06;22.63;;;13.88;;
23496;SDS011;11925;48.122;11.560;2022-11-30T01:03:35;26.17;;;15.27;;
23496;SDS011;11925;48.122;11.560;2022-11-30T01:06:04;24.25;;;14.65;;
23496;SDS011;11925;48.122;11.560;2022-11-30T01:08:34;24.17;;;14.95;;
23496;SDS011;11925;48.122;11.560;2022-11-30T01:11:04;22.27;;;14.57;;
23496;SDS011;11925;48.122;11.560;2022-11-30T01:13:34;24.37;;;14.90;;
23496;SDS011;11925;48.122;11.560;2022-11-30T01:16:07;26.83;;;16.08;;
23496;SDS011;11925;48.122;11.560;2022-11-30T01:18:36;25.80;;;15.75;;
23496;SDS011;11925;48.122;11.560;2022-11-30T01:21:05;26.00;;;15.95;;
23496;SDS011;11925;48.122;11.560;2022-11-30T01:23:35;25.88;;;15.80;;
23496;SDS011;11925;48.122;11.560;2022-11-30T01:26:04;29.63;;;16.73;;
23496;SDS011;11925;48.122;11.560;2022-11-30T01:28:32;28.55;;;16.50;;
23496;SDS011;11925;48.122;11.560;2022-11-30T01:31:02;26.27;;;15.85;;
23496;SDS011;11925;48.122;11.560;2022-11-30T01:33:31;24.25;;;14.68;;
23496;SDS011;11925;48.122;11.560;2022-11-30T01:36:00;26.88;;;16.30;;
23496;SDS011;11925;48.122;11.560;2022-11-30T01:38:32;26.35;;;16.27;;
23496;SDS011;11925;48.122;11.560;2022-11-30T01:41:02;31.30;;;17.17;;
23496;SDS011;11925;48.122;11.560;2022-11-30T01:43:38;24.85;;;15.80;;
23496;SDS011;11925;48.122;11.560;2022-11-30T01:46:15;27.10;;;17.10;;
23496;SDS011;11925;48.122;11.560;2022-11-30T01:48:45;26.05;;;16.10;;
23496;SDS011;11925;48.122;11.560;2022-11-30T01:51:15;26.85;;;16.17;;
23496;SDS011;11925;48.122;11.560;2022-11-30T01:53:43;28.50;;;16.90;;
23496;SDS011;11925;48.122;11.560;2022-11-30T01:56:14;27.30;;;16.98;;
23496;SDS011;11925;48.122;11.560;2022-11-30T01:58:43;26.63;;;17.00;;
23496;SDS011;11925;48.122;11.560;2022-11-30T02:01:12;28.52;;;17.10;;
23496;SDS011;11925;48.122;11.560;2022-11-30T02:03:42;29.05;;;17.15;;
23496;SDS011;11925;48.122;11.560;2022-11-30T02:06:13;27.77;;;17.73;;
23496;SDS011;11925;48.122;11.560;2022-11-30T02:08:42;29.98;;;16.95;;
23496;SDS011;11925;48.122;11.560;2022-11-30T02:11:11;28.30;;;16.42;;
23496;SDS011;11925;48.122;11.560;2022-11-30T02:13:51;29.58;;;16.35;;
23496;SDS011;11925;48.122;11.560;2022-11-30T02:16:25;30.42;;;17.88;;
23496;SDS011;11925;48.122;11.560;2022-11-30T02:18:56;30.05;;;17.98;;
23496;SDS011;11925;48.122;11.560;2022-11-30T02:21:28;29.45;;;17.02;;
23496;SDS011;11925;48.122;11.560;2022-11-30T02:26:50;27.52;;;16.85;;
23496;SDS011;11925;48.122;11.560;2022-11-30T02:29:23;31.20;;;17.42;;
23496;SDS011;11925;48.122;11.560;2022-11-30T02:31:53;29.95;;;17.98;;
23496;SDS011;11925;48.122;11.560;2022-11-30T02:34:24;31.35;;;18.50;;
23496;SDS011;11925;48.122;11.560;2022-11-30T02:36:54;33.10;;;18.70;;
23496;SDS011;11925;48.122;11.560;2022-11-30T02:39:22;29.75;;;17.48;;
23496;SDS011;11925;48.122;11.560;2022-11-30T02:41:51;29.70;;;18.02;;
23496;SDS011;11925;48.122;11.560;2022-11-30T02:44:19;30.70;;;18.35;;
23496;SDS011;11925;48.122;11.560;2022-11-30T02:46:55;31.02;;;18.40;;
23496;SDS011;11925;48.122;11.560;2022-11-30T02:49:28;33.97;;;19.77;;
23496;SDS011;11925;48.122;11.560;2022-11-30T02:51:58;34.58;;;19.25;;
23496;SDS011;11925;48.122;11.560;2022-11-30T02:54:28;29.45;;;18.17;;
23496;SDS011;11925;48.122;11.560;2022-11-30T02:56:56;32.03;;;19.20;;
23496;SDS011;11925;48.122;11.560;2022-11-30T02:59:25;32.47;;;18.75;;
23496;SDS011;11925;48.122;11.560;2022-11-30T03:01:55;31.38;;;18.77;;
23496;SDS011;11925;48.122;11.560;2022-11-30T03:04:24;31.70;;;17.63;;
23496;SDS011;11925;48.122;11.560;2022-11-30T03:06:52;30.27;;;17.80;;
23496;SDS011;11925;48.122;11.560;2022-11-30T03:09:21;30.65;;;17.88;;
23496;SDS011;11925;48.122;11.560;2022-11-30T03:11:49;29.42;;;16.85;;
23496;SDS011;11925;48.122;11.560;2022-11-30T03:14:18;30.80;;;17.48;;
23496;SDS011;11925;48.122;11.560;2022-11-30T03:16:46;32.05;;;17.67;;
23496;SDS011;11925;48.122;11.560;2022-11-30T03:19:16;31.48;;;17.15;;
23496;SDS011;11925;48.122;11.560;2022-11-30T03:21:46;27.98;;;16.58;;
23496;SDS011;11925;48.122;11.560;2022-11-30T03:24:14;28.40;;;16.02;;
23496;SDS011;11925;48.122;11.560;2022-11-30T03:26:43;25.90;;;15.55;;
23496;SDS011;11925;48.122;11.560;2022-11-30T03:29:11;26.63;;;16.00;;
23496;SDS011;11925;48.122;11.560;2022-11-30T03:31:40;26.05;;;15.07;;
23496;SDS011;11925;48.122;11.560;2022-11-30T03:34:08;27.48;;;14.90;;
23496;SDS011;11925;48.122;11.560;2022-11-30T03:36:39;25.30;;;14.80;;
23496;SDS011;11925;48.122;11.560;2022-11-30T03:39:07;24.95;;;14.77;;
23496;SDS011;11925;48.122;11.560;2022-11-30T03:41:36;26.40;;;14.25;;
23496;SDS011;11925;48.122;11.560;2022-11-30T03:44:04;24.30;;;13.98;;
23496;SDS011;11925;48.122;11.560;2022-11-30T03:46:33;22.52;;;13.77;;
23496;SDS011;11925;48.122;11.560;2022-11-30T03:49:01;24.15;;;13.52;;
23496;SDS011;11925;48.122;11.560;2022-11-30T03:51:30;24.95;;;13.95;;
23496;SDS011;11925;48.122;11.560;2022-11-30T03:54:00;22.13;;;13.02;;
23496;SDS011;11925;48.122;11.560;2022-11-30T03:56:29;23.48;;;14.20;;
23496;SDS011;11925;48.122;11.560;2022-11-30T03:58:57;22.52;;;13.57;;
23496;SDS011;11925;48.122;11.560;2022-11-30T04:01:26;22.55;;;13.77;;
23496;SDS011;11925;48.122;11.560;2022-11-30T04:03:55;27.35;;;13.55;;
23496;SDS011;11925;48.122;11.560;2022-11-30T04:06:23;26.65;;;15.20;;
23496;SDS011;11925;48.122;11.560;2022-11-30T04:08:52;25.50;;;14.35;;
23496;SDS011;11925;48.122;11.560;2022-11-30T04:11:22;26.25;;;14.98;;
23496;SDS011;11925;48.122;11.560;2022-11-30T04:13:51;25.80;;;14.43;;
23496;SDS011;11925;48.122;11.560;2022-11-30T04:16:19;24.85;;;15.40;;
23496;SDS011;11925;48.122;11.560;2022-11-30T04:18:48;26.45;;;16.42;;
23496;SDS011;11925;48.122;11.560;2022-11-30T04:21:16;29.50;;;16.48;;
23496;SDS011;11925;48.122;11.560;2022-11-30T04:23:45;31.30;;;16.65;;
23496;SDS011;11925;48.122;11.560;2022-11-30T04:26:14;28.02;;;16.55;;
23496;SDS011;11925;48.122;11.560;2022-11-30T04:28:44;27.77;;;16.10;;
23496;SDS011;11925;48.122;11.560;2022-11-30T04:31:13;28.63;;;16.83;;
23496;SDS011;11925;48.122;11.560;2022-11-30T04:33:41;27.48;;;16.05;;
23496;SDS011;11925;48.122;11.560;2022-11-30T04:36:14;30.02;;;16.88;;
23496;SDS011;11925;48.122;11.560;2022-11-30T04:38:43;30.00;;;16.20;;
23496;SDS011;11925;48.122;11.560;2022-11-30T04:41:11;29.35;;;16.52;;
23496;SDS011;11925;48.122;11.560;2022-11-30T04:43:40;28.48;;;15.73;;
23496;SDS011;11925;48.122;11.560;2022-11-30T04:46:10;28.58;;;17.23;;
23496;SDS011;11925;48.122;11.560;2022-11-30T04:48:39;32.30;;;16.65;;
23496;SDS011;11925;48.122;11.560;2022-11-30T04:51:07;31.85;;;16.83;;
23496;SDS011;11925;48.122;11.560;2022-11-30T04:53:36;29.70;;;16.98;;
23496;SDS011;11925;48.122;11.560;2022-11-30T04:56:05;31.08;;;16.70;;
23496;SDS011;11925;48.122;11.560;2022-11-30T04:58:34;27.75;;;16.00;;
23496;SDS011;11925;48.122;11.560;2022-11-30T05:01:04;31.52;;;16.42;;
23496;SDS011;11925;48.122;11.560;2022-11-30T05:03:34;29.73;;;16.52;;
23496;SDS011;11925;48.122;11.560;2022-11-30T05:06:03;26.23;;;15.95;;
23496;SDS011;11925;48.122;11.560;2022-11-30T05:08:31;29.10;;;16.08;;
23496;SDS011;11925;48.122;11.560;2022-11-30T05:11:00;31.17;;;17.00;;
23496;SDS011;11925;48.122;11.560;2022-11-30T05:13:28;29.27;;;15.32;;
23496;SDS011;11925;48.122;11.560;2022-11-30T05:15:57;28.52;;;16.10;;
23496;SDS011;11925;48.122;11.560;2022-11-30T05:18:26;26.88;;;15.95;;
23496;SDS011;11925;48.122;11.560;2022-11-30T05:20:58;27.65;;;14.77;;
23496;SDS011;11925;48.122;11.560;2022-11-30T05:23:27;25.17;;;15.30;;
23496;SDS011;11925;48.122;11.560;2022-11-30T05:25:55;28.33;;;16.48;;
23496;SDS011;11925;48.122;11.560;2022-11-30T05:28:24;27.40;;;16.00;;
23496;SDS011;11925;48.122;11.560;2022-11-30T05:30:52;26.58;;;15.18;;
23496;SDS011;11925;48.122;11.560;2022-11-30T05:33:21;28.73;;;16.35;;
23496;SDS011;11925;48.122;11.560;2022-11-30T05:35:50;27.73;;;15.00;;
23496;SDS011;11925;48.122;11.560;2022-11-30T05:38:20;26.58;;;16.00;;
23496;SDS011;11925;48.122;11.560;2022-11-30T05:40:49;27.80;;;15.25;;
23496;SDS011;11925;48.122;11.560;2022-11-30T05:43:18;25.02;;;15.30;;
23496;SDS011;11925;48.122;11.560;2022-11-30T05:45:46;29.75;;;16.40;;
23496;SDS011;11925;48.122;11.560;2022-11-30T05:48:15;25.30;;;14.82;;
23496;SDS011;11925;48.122;11.560;2022-11-30T05:50:43;25.27;;;14.88;;
23496;SDS011;11925;48.122;11.560;2022-11-30T05:53:12;24.38;;;14.85;;
23496;SDS011;11925;48.122;11.560;2022-11-30T05:55:42;25.95;;;15.48;;
23496;SDS011;11925;48.122;11.560;2022-11-30T05:58:10;26.02;;;15.20;;
23496;SDS011;11925;48.122;11.560;2022-11-30T06:00:39;26.80;;;14.60;;
23496;SDS011;11925;48.122;11.560;2022-11-30T06:03:08;26.27;;;14.90;;
23496;SDS011;11925;48.122;11.560;2022-11-30T06:05:36;22.58;;;13.93;;
23496;SDS011;11925;48.122;11.560;2022-11-30T06:08:05;22.92;;;13.95;;
23496;SDS011;11925;48.122;11.560;2022-11-30T06:10:34;23.40;;;13.90;;
23496;SDS011;11925;48.122;11.560;2022-11-30T06:13:06;25.85;;;14.90;;
23496;SDS011;11925;48.122;11.560;2022-11-30T06:15:35;23.63;;;13.82;;
23496;SDS011;11925;48.122;11.560;2022-11-30T06:18:04;26.23;;;13.93;;
23496;SDS011;11925;48.122;11.560;2022-11-30T06:20:33;22.63;;;13.18;;
23496;SDS011;11925;48.122;11.560;2022-11-30T06:23:01;28.48;;;14.77;;
23496;SDS011;11925;48.122;11.560;2022-11-30T06:25:30;24.60;;;14.65;;
23496;SDS011;11925;48.122;11.560;2022-11-30T06:27:58;25.15;;;13.70;;
23496;SDS011;11925;48.122;11.560;2022-11-30T06:30:28;25.27;;;14.27;;
23496;SDS011;11925;48.122;11.560;2022-11-30T06:32:57;26.60;;;14.38;;
23496;SDS011;11925;48.122;11.560;2022-11-30T06:35:26;23.83;;;13.75;;
23496;SDS011;11925;48.122;11.560;2022-11-30T06:37:55;25.00;;;13.20;;
23496;SDS011;11925;48.122;11.560;2022-11-30T06:40:25;21.98;;;13.70;;
23496;SDS011;11925;48.122;11.560;2022-11-30T06:42:54;25.45;;;14.13;;
23496;SDS011;11925;48.122;11.560;2022-11-30T06:45:23;23.02;;;13.20;;
23496;SDS011;11925;48.122;11.560;2022-11-30T06:47:54;26.40;;;14.43;;
23496;SDS011;11925;48.122;11.560;2022-11-30T06:50:23;22.65;;;13.45;;
23496;SDS011;11925;48.122;11.560;2022-11-30T06:52:51;20.63;;;12.95;;
23496;SDS011;11925;48.122;11.560;2022-11-30T06:55:21;22.73;;;13.98;;
23496;SDS011;11925;48.122;11.560;2022-11-30T06:57:50;22.80;;;13.57;;
23496;SDS011;11925;48.122;11.560;2022-11-30T07:00:18;20.58;;;12.70;;
23496;SDS011;11925;48.122;11.560;2022-11-30T07:02:47;24.70;;;13.13;;
23496;SDS011;11925;48.122;11.560;2022-11-30T07:05:17;23.52;;;13.27;;
23496;SDS011;11925;48.122;11.560;2022-11-30T07:07:45;21.83;;;12.90;;
23496;SDS011;11925;48.122;11.560;2022-11-30T07:10:14;22.17;;;12.98;;
23496;SDS011;11925;48.122;11.560;2022-11-30T07:12:45;22.38;;;12.63;;
23496;SDS011;11925;48.122;11.560;2022-11-30T07:15:14;20.58;;;11.98;;
23496;SDS011;11925;48.122;11.560;2022-11-30T07:17:43;21.10;;;12.25;;
23496;SDS011;11925;48.122;11.560;2022-11-30T07:20:11;21.27;;;13.32;;
23496;SDS011;11925;48.122;11.560;2022-11-30T07:22:41;23.48;;;13.10;;
23496;SDS011;11925;48.122;11.560;2022-11-30T07:25:10;20.02;;;11.70;;
23496;SDS011;11925;48.122;11.560;2022-11-30T07:27:56;19.92;;;12.25;;
23496;SDS011;11925;48.122;11.560;2022-11-30T07:30:25;21.05;;;12.13;;
23496;SDS011;11925;48.122;11.560;2022-11-30T07:32:53;22.33;;;13.05;;
23496;SDS011;11925;48.122;11.560;2022-11-30T07:35:22;20.33;;;12.15;;
23496;SDS011;11925;48.122;11.560;2022-11-30T07:37:52;20.85;;;12.88;;
23496;SDS011;11925;48.122;11.560;2022-11-30T07:40:20;23.23;;;12.68;;
23496;SDS011;11925;48.122;11.560;2022-11-30T07:42:53;20.60;;;12.00;;
23496;SDS011;11925;48.122;11.560;2022-11-30T07:45:22;22.98;;;12.32;;
23496;SDS011;11925;48.122;11.560;2022-11-30T07:47:50;21.60;;;12.30;;
23496;SDS011;11925;48.122;11.560;2022-11-30T07:50:20;21.67;;;12.18;;
23496;SDS011;11925;48.122;11.560;2022-11-30T07:52:53;22.45;;;13.45;;
23496;SDS011;11925;48.122;11.560;2022-11-30T07:55:22;22.30;;;13.30;;
23496;SDS011;11925;48.122;11.560;2022-11-30T07:57:51;25.17;;;14.23;;
23496;SDS011;11925;48.122;11.560;2022-11-30T08:00:20;21.95;;;12.68;;
23496;SDS011;11925;48.122;11.560;2022-11-30T08:02:48;24.63;;;13.52;;
23496;SDS011;11925;48.122;11.560;2022-11-30T08:05:17;23.92;;;13.60;;
23496;SDS011;11925;48.122;11.560;2022-11-30T08:07:49;23.60;;;14.60;;
23496;SDS011;11925;48.122;11.560;2022-11-30T08:12:47;23.33;;;13.43;;
23496;SDS011;11925;48.122;11.560;2022-11-30T08:15:16;22.77;;;13.70;;
23496;SDS011;11925;48.122;11.560;2022-11-30T08:17:47;26.10;;;14.95;;
23496;SDS011;11925;48.122;11.560;2022-11-30T08:20:20;23.55;;;14.20;;
23496;SDS011;11925;48.122;11.560;2022-11-30T08:22:49;25.70;;;14.48;;
23496;SDS011;11925;48.122;11.560;2022-11-30T08:25:18;22.25;;;13.00;;
23496;SDS011;11925;48.122;11.560;2022-11-30T08:27:48;24.40;;;14.35;;
23496;SDS011;11925;48.122;11.560;2022-11-30T08:30:16;24.15;;;13.98;;
23496;SDS011;11925;48.122;11.560;2022-11-30T08:32:45;24.10;;;14.70;;
23496;SDS011;11925;48.122;11.560;2022-11-30T08:35:13;26.40;;;14.95;;
23496;SDS011;11925;48.122;11.560;2022-11-30T08:37:42;28.45;;;15.85;;
23496;SDS011;11925;48.122;11.560;2022-11-30T08:40:11;24.83;;;14.68;;
23496;SDS011;11925;48.122;11.560;2022-11-30T08:42:39;26.77;;;14.27;;
23496;SDS011;11925;48.122;11.560;2022-11-30T08:45:10;25.02;;;14.43;;
23496;SDS011;11925;48.122;11.560;2022-11-30T08:47:38;24.33;;;14.25;;
23496;SDS011;11925;48.122;11.560;2022-11-30T08:50:07;23.77;;;14.15;;
23496;SDS011;11925;48.122;11.560;2022-11-30T08:52:36;24.13;;;13.75;;
23496;SDS011;11925;48.122;11.560;2022-11-30T08:55:05;24.48;;;14.38;;
23496;SDS011;11925;48.122;11.560;2022-11-30T08:57:33;24.88;;;14.98;;
23496;SDS011;11925;48.122;11.560;2022-11-30T09:00:02;26.38;;;15.05;;
23496;SDS011;11925;48.122;11.560;2022-11-30T09:02:32;25.85;;;15.07;;
23496;SDS011;11925;48.122;11.560;2022-11-30T09:05:01;25.55;;;14.15;;
23496;SDS011;11925;48.122;11.560;2022-11-30T09:07:29;23.80;;;15.20;;
23496;SDS011;11925;48.122;11.560;2022-11-30T09:09:58;25.02;;;14.18;;
23496;SDS011;11925;48.122;11.560;2022-11-30T09:12:27;23.73;;;14.38;;
23496;SDS011;11925;48.122;11.560;2022-11-30T09:14:56;30.50;;;14.65;;
23496;SDS011;11925;48.122;11.560;2022-11-30T09:17:25;28.67;;;15.05;;
23496;SDS011;11925;48.122;11.560;2022-11-30T09:19:55;23.80;;;13.55;;
23496;SDS011;11925;48.122;11.560;2022-11-30T09:22:24;25.98;;;14.95;;
23496;SDS011;11925;48.122;11.560;2022-11-30T09:24:52;22.90;;;13.45;;
23496;SDS011;11925;48.122;11.560;2022-11-30T09:27:21;26.63;;;14.07;;
23496;SDS011;11925;48.122;11.560;2022-11-30T09:29:55;23.98;;;13.57;;
23496;SDS011;11925;48.122;11.560;2022-11-30T09:32:24;22.73;;;13.52;;
23496;SDS011;11925;48.122;11.560;2022-11-30T09:34:52;24.27;;;13.77;;
23496;SDS011;11925;48.122;11.560;2022-11-30T09:37:22;22.88;;;13.55;;
23496;SDS011;11925;48.122;11.560;2022-11-30T09:39:51;25.55;;;13.70;;
23496;SDS011;11925;48.122;11.560;2022-11-30T09:42:28;24.48;;;14.10;;
23496;SDS011;11925;48.122;11.560;2022-11-30T09:45:01;26.02;;;13.75;;
23496;SDS011;11925;48.122;11.560;2022-11-30T09:47:34;24.60;;;14.23;;
23496;SDS011;11925;48.122;11.560;2022-11-30T09:50:09;24.63;;;13.77;;
23496;SDS011;11925;48.122;11.560;2022-11-30T09:52:42;22.55;;;13.13;;
23496;SDS011;11925;48.122;11.560;2022-11-30T09:57:42;23.42;;;13.07;;
23496;SDS011;11925;48.122;11.560;2022-11-30T10:00:12;23.48;;;14.23;;
23496;SDS011;11925;48.122;11.560;2022-11-30T10:02:41;24.38;;;12.98;;
23496;SDS011;11925;48.122;11.560;2022-11-30T10:05:11;25.15;;;13.48;;
23496;SDS011;11925;48.122;11.560;2022-11-30T10:07:46;23.30;;;12.32;;
23496;SDS011;11925;48.122;11.560;2022-11-30T10:10:20;23.42;;;13.55;;
23496;SDS011;11925;48.122;11.560;2022-11-30T10:13:00;24.73;;;13.18;;
23496;SDS011;11925;48.122;11.560;2022-11-30T10:15:32;19.45;;;11.80;;
23496;SDS011;11925;48.122;11.560;2022-11-30T10:18:06;21.50;;;12.45;;
23496;SDS011;11925;48.122;11.560;2022-11-30T10:20:41;22.25;;;12.00;;
23496;SDS011;11925;48.122;11.560;2022-11-30T10:23:21;23.10;;;12.60;;
23496;SDS011;11925;48.122;11.560;2022-11-30T10:25:54;21.13;;;12.93;;
23496;SDS011;11925;48.122;11.560;2022-11-30T10:28:27;21.60;;;12.38;;
23496;SDS011;11925;48.122;11.560;2022-11-30T10:31:15;22.17;;;12.70;;
23496;SDS011;11925;48.122;11.560;2022-11-30T10:33:44;20.25;;;12.05;;
23496;SDS011;11925;48.122;11.560;2022-11-30T10:36:23;19.23;;;11.73;;
23496;SDS011;11925;48.122;11.560;2022-11-30T10:38:55;20.00;;;11.30;;
23496;SDS011;11925;48.122;11.560;2022-11-30T10:41:27;22.45;;;12.13;;
23496;SDS011;11925;48.122;11.560;2022-11-30T10:43:57;21.10;;;12.07;;
23496;SDS011;11925;48.122;11.560;2022-11-30T10:46:28;21.10;;;11.35;;
23496;SDS011;11925;48.122;11.560;2022-11-30T10:48:59;21.03;;;11.47;;
23496;SDS011;11925;48.122;11.560;2022-11-30T10:51:30;19.08;;;12.13;;
23496;SDS011;11925;48.122;11.560;2022-11-30T10:54:01;19.48;;;12.07;;
23496;SDS011;11925;48.122;11.560;2022-11-30T10:56:30;19.83;;;11.23;;
23496;SDS011;11925;48.122;11.560;2022-11-30T10:58:59;18.88;;;10.95;;
23496;SDS011;11925;48.122;11.560;2022-11-30T11:01:30;18.55;;;11.05;;
23496;SDS011;11925;48.122;11.560;2022-11-30T11:04:06;18.92;;;10.98;;
23496;SDS011;11925;48.122;11.560;2022-11-30T11:06:35;20.08;;;11.80;;
23496;SDS011;11925;48.122;11.560;2022-11-30T11:12:00;18.48;;;10.75;;
23496;SDS011;11925;48.122;11.560;2022-11-30T11:14:29;18.55;;;11.25;;
23496;SDS011;11925;48.122;11.560;2022-11-30T11:17:04;20.17;;;11.18;;
23496;SDS011;11925;48.122;11.560;2022-11-30T11:19:34;18.77;;;11.63;;
23496;SDS011;11925;48.122;11.560;2022-11-30T11:22:04;19.80;;;10.60;;
23496;SDS011;11925;48.122;11.560;2022-11-30T11:24:33;18.10;;;11.30;;
23496;SDS011;11925;48.122;11.560;2022-11-30T11:27:04;19.27;;;11.55;;
23496;SDS011;11925;48.122;11.560;2022-11-30T11:29:33;20.10;;;11.20;;
23496;SDS011;11925;48.122;11.560;2022-11-30T11:34:51;18.48;;;10.85;;
23496;SDS011;11925;48.122;11.560;2022-11-30T11:37:21;18.17;;;10.82;;
23496;SDS011;11925;48.122;11.560;2022-11-30T11:39:58;16.02;;;10.15;;
23496;SDS011;11925;48.122;11.560;2022-11-30T11:42:30;18.50;;;10.85;;
23496;SDS011;11925;48.122;11.560;2022-11-30T11:44:59;15.77;;;9.63;;
23496;SDS011;11925;48.122;11.560;2022-11-30T11:47:32;17.70;;;10.18;;
23496;SDS011;11925;48.122;11.560;2022-11-30T11:53:15;15.40;;;9.00;;
23496;SDS011;11925;48.122;11.560;2022-11-30T11:55:49;17.95;;;9.27;;
23496;SDS011;11925;48.122;11.560;2022-11-30T11:58:21;17.13;;;9.82;;
23496;SDS011;11925;48.122;11.560;2022-11-30T12:00:52;17.25;;;9.82;;
23496;SDS011;11925;48.122;11.560;2022-11-30T12:03:42;16.77;;;9.68;;
23496;SDS011;11925;48.122;11.560;2022-11-30T12:06:13;18.52;;;10.18;;
23496;SDS011;11925;48.122;11.560;2022-11-30T12:08:43;17.25;;;10.82;;
23496;SDS011;11925;48.122;11.560;2022-11-30T12:11:14;20.17;;;11.15;;
23496;SDS011;11925;48.122;11.560;2022-11-30T12:16:22;21.10;;;11.25;;
23496;SDS011;11925;48.122;11.560;2022-11-30T12:18:53;20.30;;;11.75;;
23496;SDS011;11925;48.122;11.560;2022-11-30T12:23:55;19.70;;;12.13;;
23496;SDS011;11925;48.122;11.560;2022-11-30T12:26:28;21.08;;;12.20;;
23496;SDS011;11925;48.122;11.560;2022-11-30T12:31:28;23.42;;;12.90;;
23496;SDS011;11925;48.122;11.560;2022-11-30T12:34:03;19.00;;;12.90;;
23496;SDS011;11925;48.122;11.560;2022-11-30T12:36:38;22.95;;;12.95;;
23496;SDS011;11925;48.122;11.560;2022-11-30T12:39:13;23.90;;;12.90;;
23496;SDS011;11925;48.122;11.560;2022-11-30T12:41:45;22.90;;;11.93;;
23496;SDS011;11925;48.122;11.560;2022-11-30T12:44:23;22.08;;;13.05;;
23496;SDS011;11925;48.122;11.560;2022-11-30T12:46:57;21.17;;;12.80;;
23496;SDS011;11925;48.122;11.560;2022-11-30T12:49:32;21.92;;;12.85;;
23496;SDS011;11925;48.122;11.560;2022-11-30T12:52:07;21.50;;;12.32;;
23496;SDS011;11925;48.122;11.560;2022-11-30T12:54:40;21.67;;;13.05;;
23496;SDS011;11925;48.122;11.560;2022-11-30T12:57:12;21.50;;;12.73;;
23496;SDS011;11925;48.122;11.560;2022-11-30T12:59:44;21.35;;;12.05;;
23496;SDS011;11925;48.122;11.560;2022-11-30T13:02:32;20.60;;;11.82;;
23496;SDS011;11925;48.122;11.560;2022-11-30T13:05:05;21.60;;;13.10;;
23496;SDS011;11925;48.122;11.560;2022-11-30T13:07:36;21.27;;;12.18;;
23496;SDS011;11925;48.122;11.560;2022-11-30T13:10:12;20.88;;;12.32;;
23496;SDS011;11925;48.122;11.560;2022-11-30T13:12:46;19.38;;;11.52;;
23496;SDS011;11925;48.122;11.560;2022-11-30T13:15:16;20.58;;;11.68;;
23496;SDS011;11925;48.122;11.560;2022-11-30T13:17:47;21.02;;;12.35;;
23496;SDS011;11925;48.122;11.560;2022-11-30T13:20:18;20.20;;;11.63;;
23496;SDS011;11925;48.122;11.560;2022-11-30T13:22:49;20.95;;;12.30;;
23496;SDS011;11925;48.122;11.560;2022-11-30T13:25:22;19.83;;;10.98;;
23496;SDS011;11925;48.122;11.560;2022-11-30T13:28:15;20.55;;;11.10;;
23496;SDS011;11925;48.122;11.560;2022-11-30T13:30:46;19.00;;;11.10;;
23496;SDS011;11925;48.122;11.560;2022-11-30T13:36:06;18.27;;;11.18;;
23496;SDS011;11925;48.122;11.560;2022-11-30T13:39:01;18.98;;;11.23;;
23496;SDS011;11925;48.122;11.560;2022-11-30T13:41:35;19.30;;;11.13;;
23496;SDS011;11925;48.122;11.560;2022-11-30T13:44:04;18.60;;;11.07;;
23496;SDS011;11925;48.122;11.560;2022-11-30T13:46:33;17.90;;;10.38;;
23496;SDS011;11925;48.122;11.560;2022-11-30T13:49:09;21.48;;;12.50;;
23496;SDS011;11925;48.122;11.560;2022-11-30T13:51:39;18.35;;;10.80;;
23496;SDS011;11925;48.122;11.560;2022-11-30T13:56:57;18.63;;;10.05;;
23496;SDS011;11925;48.122;11.560;2022-11-30T13:59:33;15.77;;;10.05;;
23496;SDS011;11925;48.122;11.560;2022-11-30T14:05:21;16.30;;;9.45;;
23496;SDS011;11925;48.122;11.560;2022-11-30T14:10:39;18.80;;;10.55;;
23496;SDS011;11925;48.122;11.560;2022-11-30T14:13:28;17.30;;;10.05;;
23496;SDS011;11925;48.122;11.560;2022-11-30T14:15:57;16.63;;;10.55;;
23496;SDS011;11925;48.122;11.560;2022-11-30T14:18:32;17.27;;;10.55;;
23496;SDS011;11925;48.122;11.560;2022-11-30T14:21:16;20.15;;;10.50;;
23496;SDS011;11925;48.122;11.560;2022-11-30T14:23:55;19.25;;;11.10;;
23496;SDS011;11925;48.122;11.560;2022-11-30T14:26:28;17.88;;;11.73;;
23496;SDS011;11925;48.122;11.560;2022-11-30T14:28:59;18.38;;;11.00;;
23496;SDS011;11925;48.122;11.560;2022-11-30T14:31:30;19.02;;;11.63;;
23496;SDS011;11925;48.122;11.560;2022-11-30T14:34:01;17.95;;;11.35;;
23496;SDS011;11925;48.122;11.560;2022-11-30T14:36:32;18.35;;;11.25;;
23496;SDS011;11925;48.122;11.560;2022-11-30T14:39:01;19.88;;;11.50;;
23496;SDS011;11925;48.122;11.560;2022-11-30T14:41:32;18.75;;;12.07;;
23496;SDS011;11925;48.122;11.560;2022-11-30T14:44:02;20.88;;;11.98;;
23496;SDS011;11925;48.122;11.560;2022-11-30T14:46:32;19.33;;;10.88;;
23496;SDS011;11925;48.122;11.560;2022-11-30T14:49:05;21.98;;;12.27;;
23496;SDS011;11925;48.122;11.560;2022-11-30T14:51:33;21.08;;;12.82;;
23496;SDS011;11925;48.122;11.560;2022-11-30T14:54:06;21.23;;;13.15;;
23496;SDS011;11925;48.122;11.560;2022-11-30T14:56:39;21.13;;;13.45;;
23496;SDS011;11925;48.122;11.560;2022-11-30T14:59:17;23.63;;;14.48;;
23496;SDS011;11925;48.122;11.560;2022-11-30T15:01:53;22.92;;;13.23;;
23496;SDS011;11925;48.122;11.560;2022-11-30T15:04:22;22.27;;;13.50;;